sensor_id;sensor_type;location;lat;lon;timestamp;P1;durP1;ratioP1;P2;durP2;ratioP2
15712;SDS011;7957;51.608;6.916;2022-09-03T00:00:44;1.57;;;1.47;;
15712;SDS011;7957;51.608;6.916;2022-09-03T00:03:17;1.77;;;1.67;;
15712;SDS011;7957;51.608;6.916;2022-09-03T00:05:50;2.00;;;1.80;;
15712;SDS011;7957;51.608;6.916;2022-09-03T00:08:27;2.67;;;1.70;;
15712;SDS011;7957;51.608;6.916;2022-09-03T00:10:58;2.03;;;1.67;;
15712;SDS011;7957;51.608;6.916;2022-09-03T00:13:34;1.63;;;1.53;;
15712;SDS011;7957;51.608;6.916;2022-09-03T00:16:04;3.00;;;1.77;;
15712;SDS011;7957;51.608;6.916;2022-09-03T00:18:36;1.93;;;1.70;;
15712;SDS011;7957;51.608;6.916;2022-09-03T00:21:09;2.93;;;1.90;;
15712;SDS011;7957;51.608;6.916;2022-09-03T00:23:39;1.80;;;1.70;;
15712;SDS011;7957;51.608;6.916;2022-09-03T00:26:15;2.07;;;1.83;;
15712;SDS011;7957;51.608;6.916;2022-09-03T00:28:50;2.83;;;1.60;;
15712;SDS011;7957;51.608;6.916;2022-09-03T00:31:24;1.70;;;1.60;;
15712;SDS011;7957;51.608;6.916;2022-09-03T00:33:55;3.53;;;1.80;;
15712;SDS011;7957;51.608;6.916;2022-09-03T00:36:30;2.93;;;1.70;;
15712;SDS011;7957;51.608;6.916;2022-09-03T00:39:06;2.63;;;1.80;;
15712;SDS011;7957;51.608;6.916;2022-09-03T00:41:36;2.10;;;1.90;;
15712;SDS011;7957;51.608;6.916;2022-09-03T00:44:16;2.30;;;1.77;;
15712;SDS011;7957;51.608;6.916;2022-09-03T00:46:56;2.87;;;1.80;;
15712;SDS011;7957;51.608;6.916;2022-09-03T00:49:36;2.47;;;1.87;;
15712;SDS011;7957;51.608;6.916;2022-09-03T00:52:15;3.80;;;1.70;;
15712;SDS011;7957;51.608;6.916;2022-09-03T00:54:51;4.33;;;1.90;;
15712;SDS011;7957;51.608;6.916;2022-09-03T00:57:29;2.33;;;1.60;;
15712;SDS011;7957;51.608;6.916;2022-09-03T01:00:08;2.23;;;1.90;;
15712;SDS011;7957;51.608;6.916;2022-09-03T01:02:40;1.93;;;1.70;;
15712;SDS011;7957;51.608;6.916;2022-09-03T01:05:24;1.40;;;1.30;;
15712;SDS011;7957;51.608;6.916;2022-09-03T01:08:03;2.00;;;1.80;;
15712;SDS011;7957;51.608;6.916;2022-09-03T01:10:41;2.70;;;1.70;;
15712;SDS011;7957;51.608;6.916;2022-09-03T01:13:19;2.17;;;1.70;;
15712;SDS011;7957;51.608;6.916;2022-09-03T01:15:51;2.20;;;1.60;;
15712;SDS011;7957;51.608;6.916;2022-09-03T01:18:28;1.70;;;1.60;;
15712;SDS011;7957;51.608;6.916;2022-09-03T01:21:07;3.30;;;2.00;;
15712;SDS011;7957;51.608;6.916;2022-09-03T01:27:00;2.37;;;1.53;;
15712;SDS011;7957;51.608;6.916;2022-09-03T01:29:38;1.57;;;1.47;;
15712;SDS011;7957;51.608;6.916;2022-09-03T01:32:11;1.73;;;1.63;;
15712;SDS011;7957;51.608;6.916;2022-09-03T01:34:47;1.77;;;1.60;;
15712;SDS011;7957;51.608;6.916;2022-09-03T01:37:23;1.97;;;1.77;;
15712;SDS011;7957;51.608;6.916;2022-09-03T01:39:57;2.40;;;1.83;;
15712;SDS011;7957;51.608;6.916;2022-09-03T01:42:32;2.10;;;1.63;;
15712;SDS011;7957;51.608;6.916;2022-09-03T01:45:22;1.70;;;1.60;;
15712;SDS011;7957;51.608;6.916;2022-09-03T01:48:07;1.60;;;1.50;;
15712;SDS011;7957;51.608;6.916;2022-09-03T01:50:45;3.13;;;1.90;;
15712;SDS011;7957;51.608;6.916;2022-09-03T01:53:23;3.23;;;1.70;;
15712;SDS011;7957;51.608;6.916;2022-09-03T01:56:03;1.70;;;1.60;;
15712;SDS011;7957;51.608;6.916;2022-09-03T01:58:41;1.60;;;1.37;;
15712;SDS011;7957;51.608;6.916;2022-09-03T02:01:14;1.87;;;1.70;;
15712;SDS011;7957;51.608;6.916;2022-09-03T02:03:45;2.30;;;1.70;;
15712;SDS011;7957;51.608;6.916;2022-09-03T02:06:14;1.60;;;1.50;;
15712;SDS011;7957;51.608;6.916;2022-09-03T02:08:40;2.10;;;1.70;;
15712;SDS011;7957;51.608;6.916;2022-09-03T02:11:08;4.23;;;1.60;;
15712;SDS011;7957;51.608;6.916;2022-09-03T02:13:36;1.73;;;1.60;;
15712;SDS011;7957;51.608;6.916;2022-09-03T02:16:09;1.63;;;1.53;;
15712;SDS011;7957;51.608;6.916;2022-09-03T02:18:40;1.70;;;1.43;;
15712;SDS011;7957;51.608;6.916;2022-09-03T02:21:11;2.33;;;1.50;;
15712;SDS011;7957;51.608;6.916;2022-09-03T02:23:41;1.90;;;1.70;;
15712;SDS011;7957;51.608;6.916;2022-09-03T02:26:08;3.53;;;1.80;;
15712;SDS011;7957;51.608;6.916;2022-09-03T02:28:38;1.67;;;1.50;;
15712;SDS011;7957;51.608;6.916;2022-09-03T02:31:05;2.90;;;1.70;;
15712;SDS011;7957;51.608;6.916;2022-09-03T02:33:34;2.13;;;1.70;;
15712;SDS011;7957;51.608;6.916;2022-09-03T02:36:06;2.00;;;1.80;;
15712;SDS011;7957;51.608;6.916;2022-09-03T02:38:35;2.33;;;1.97;;
15712;SDS011;7957;51.608;6.916;2022-09-03T02:41:03;2.07;;;1.87;;
15712;SDS011;7957;51.608;6.916;2022-09-03T02:43:31;2.83;;;2.00;;
15712;SDS011;7957;51.608;6.916;2022-09-03T02:46:06;2.17;;;1.67;;
15712;SDS011;7957;51.608;6.916;2022-09-03T02:48:37;1.87;;;1.60;;
15712;SDS011;7957;51.608;6.916;2022-09-03T02:51:06;2.10;;;1.70;;
15712;SDS011;7957;51.608;6.916;2022-09-03T02:53:33;2.50;;;1.63;;
15712;SDS011;7957;51.608;6.916;2022-09-03T02:56:00;2.17;;;1.63;;
15712;SDS011;7957;51.608;6.916;2022-09-03T02:58:27;2.00;;;1.70;;
15712;SDS011;7957;51.608;6.916;2022-09-03T03:00:55;2.10;;;1.80;;
15712;SDS011;7957;51.608;6.916;2022-09-03T03:03:22;2.23;;;1.70;;
15712;SDS011;7957;51.608;6.916;2022-09-03T03:05:50;3.13;;;1.90;;
15712;SDS011;7957;51.608;6.916;2022-09-03T03:08:22;2.50;;;1.80;;
15712;SDS011;7957;51.608;6.916;2022-09-03T03:10:53;1.60;;;1.50;;
15712;SDS011;7957;51.608;6.916;2022-09-03T03:13:22;2.00;;;1.60;;
15712;SDS011;7957;51.608;6.916;2022-09-03T03:15:50;2.87;;;1.83;;
15712;SDS011;7957;51.608;6.916;2022-09-03T03:18:17;2.73;;;1.73;;
15712;SDS011;7957;51.608;6.916;2022-09-03T03:20:44;2.53;;;1.57;;
15712;SDS011;7957;51.608;6.916;2022-09-03T03:23:12;2.40;;;1.60;;
15712;SDS011;7957;51.608;6.916;2022-09-03T03:25:40;2.50;;;1.73;;
15712;SDS011;7957;51.608;6.916;2022-09-03T03:28:07;1.90;;;1.70;;
15712;SDS011;7957;51.608;6.916;2022-09-03T03:30:36;2.07;;;1.90;;
15712;SDS011;7957;51.608;6.916;2022-09-03T03:33:04;2.17;;;1.80;;
15712;SDS011;7957;51.608;6.916;2022-09-03T03:35:32;1.70;;;1.60;;
15712;SDS011;7957;51.608;6.916;2022-09-03T03:37:59;2.37;;;1.63;;
15712;SDS011;7957;51.608;6.916;2022-09-03T03:40:26;1.90;;;1.70;;
15712;SDS011;7957;51.608;6.916;2022-09-03T03:42:56;1.77;;;1.60;;
15712;SDS011;7957;51.608;6.916;2022-09-03T03:45:23;2.27;;;1.70;;
15712;SDS011;7957;51.608;6.916;2022-09-03T03:47:50;1.97;;;1.70;;
15712;SDS011;7957;51.608;6.916;2022-09-03T03:50:17;2.10;;;1.70;;
15712;SDS011;7957;51.608;6.916;2022-09-03T03:52:44;2.87;;;1.80;;
15712;SDS011;7957;51.608;6.916;2022-09-03T03:55:12;3.10;;;1.77;;
15712;SDS011;7957;51.608;6.916;2022-09-03T03:57:39;3.57;;;1.73;;
15712;SDS011;7957;51.608;6.916;2022-09-03T04:00:08;3.40;;;1.90;;
15712;SDS011;7957;51.608;6.916;2022-09-03T04:02:36;1.90;;;1.77;;
15712;SDS011;7957;51.608;6.916;2022-09-03T04:05:03;3.00;;;1.77;;
15712;SDS011;7957;51.608;6.916;2022-09-03T04:07:30;2.17;;;1.70;;
15712;SDS011;7957;51.608;6.916;2022-09-03T04:09:57;4.10;;;1.77;;
15712;SDS011;7957;51.608;6.916;2022-09-03T04:12:25;3.40;;;1.80;;
15712;SDS011;7957;51.608;6.916;2022-09-03T04:14:52;1.97;;;1.47;;
15712;SDS011;7957;51.608;6.916;2022-09-03T04:17:20;1.60;;;1.50;;
15712;SDS011;7957;51.608;6.916;2022-09-03T04:19:47;2.00;;;1.80;;
15712;SDS011;7957;51.608;6.916;2022-09-03T04:22:14;2.37;;;1.53;;
15712;SDS011;7957;51.608;6.916;2022-09-03T04:24:43;1.90;;;1.80;;
15712;SDS011;7957;51.608;6.916;2022-09-03T04:27:10;3.10;;;1.93;;
15712;SDS011;7957;51.608;6.916;2022-09-03T04:29:36;2.53;;;1.90;;
15712;SDS011;7957;51.608;6.916;2022-09-03T04:32:03;3.27;;;1.53;;
15712;SDS011;7957;51.608;6.916;2022-09-03T04:34:50;2.13;;;1.80;;
15712;SDS011;7957;51.608;6.916;2022-09-03T04:37:17;2.30;;;1.90;;
15712;SDS011;7957;51.608;6.916;2022-09-03T04:39:44;1.83;;;1.70;;
15712;SDS011;7957;51.608;6.916;2022-09-03T04:42:11;2.13;;;1.87;;
15712;SDS011;7957;51.608;6.916;2022-09-03T04:44:38;2.77;;;1.80;;
15712;SDS011;7957;51.608;6.916;2022-09-03T04:47:05;2.07;;;1.70;;
15712;SDS011;7957;51.608;6.916;2022-09-03T04:49:32;2.00;;;1.63;;
15712;SDS011;7957;51.608;6.916;2022-09-03T04:52:00;2.20;;;1.70;;
15712;SDS011;7957;51.608;6.916;2022-09-03T04:54:27;2.83;;;1.80;;
15712;SDS011;7957;51.608;6.916;2022-09-03T04:56:54;2.13;;;1.80;;
15712;SDS011;7957;51.608;6.916;2022-09-03T04:59:21;1.77;;;1.67;;
15712;SDS011;7957;51.608;6.916;2022-09-03T05:01:48;1.73;;;1.63;;
15712;SDS011;7957;51.608;6.916;2022-09-03T05:04:16;2.07;;;1.50;;
15712;SDS011;7957;51.608;6.916;2022-09-03T05:06:43;2.60;;;1.80;;
15712;SDS011;7957;51.608;6.916;2022-09-03T05:09:12;1.80;;;1.70;;
15712;SDS011;7957;51.608;6.916;2022-09-03T05:11:39;2.27;;;1.67;;
15712;SDS011;7957;51.608;6.916;2022-09-03T05:14:05;1.73;;;1.63;;
15712;SDS011;7957;51.608;6.916;2022-09-03T05:16:35;6.63;;;1.70;;
15712;SDS011;7957;51.608;6.916;2022-09-03T05:19:02;2.03;;;1.60;;
15712;SDS011;7957;51.608;6.916;2022-09-03T05:21:32;1.60;;;1.50;;
15712;SDS011;7957;51.608;6.916;2022-09-03T05:24:00;1.87;;;1.70;;
15712;SDS011;7957;51.608;6.916;2022-09-03T05:26:30;1.70;;;1.60;;
15712;SDS011;7957;51.608;6.916;2022-09-03T05:28:58;1.50;;;1.40;;
15712;SDS011;7957;51.608;6.916;2022-09-03T05:31:27;2.27;;;1.50;;
15712;SDS011;7957;51.608;6.916;2022-09-03T05:33:56;2.20;;;1.40;;
15712;SDS011;7957;51.608;6.916;2022-09-03T05:36:25;1.77;;;1.63;;
15712;SDS011;7957;51.608;6.916;2022-09-03T05:38:54;2.33;;;2.07;;
15712;SDS011;7957;51.608;6.916;2022-09-03T05:41:22;2.83;;;1.50;;
15712;SDS011;7957;51.608;6.916;2022-09-03T05:43:51;2.37;;;1.40;;
15712;SDS011;7957;51.608;6.916;2022-09-03T05:46:21;2.83;;;1.87;;
15712;SDS011;7957;51.608;6.916;2022-09-03T05:48:55;2.20;;;1.40;;
15712;SDS011;7957;51.608;6.916;2022-09-03T05:51:22;2.40;;;1.70;;
15712;SDS011;7957;51.608;6.916;2022-09-03T05:53:49;2.63;;;1.67;;
15712;SDS011;7957;51.608;6.916;2022-09-03T05:56:18;1.60;;;1.50;;
15712;SDS011;7957;51.608;6.916;2022-09-03T05:58:47;2.73;;;1.70;;
15712;SDS011;7957;51.608;6.916;2022-09-03T06:01:16;3.33;;;1.90;;
15712;SDS011;7957;51.608;6.916;2022-09-03T06:03:46;2.63;;;1.80;;
15712;SDS011;7957;51.608;6.916;2022-09-03T06:06:19;1.90;;;1.60;;
15712;SDS011;7957;51.608;6.916;2022-09-03T06:08:49;3.07;;;1.60;;
15712;SDS011;7957;51.608;6.916;2022-09-03T06:11:17;3.53;;;1.50;;
15712;SDS011;7957;51.608;6.916;2022-09-03T06:13:45;2.07;;;1.63;;
15712;SDS011;7957;51.608;6.916;2022-09-03T06:16:12;2.33;;;1.63;;
15712;SDS011;7957;51.608;6.916;2022-09-03T06:18:41;1.60;;;1.50;;
15712;SDS011;7957;51.608;6.916;2022-09-03T06:21:08;3.00;;;1.60;;
15712;SDS011;7957;51.608;6.916;2022-09-03T06:23:35;2.80;;;1.87;;
15712;SDS011;7957;51.608;6.916;2022-09-03T06:26:03;3.70;;;1.40;;
15712;SDS011;7957;51.608;6.916;2022-09-03T06:28:32;1.87;;;1.63;;
15712;SDS011;7957;51.608;6.916;2022-09-03T06:31:00;3.00;;;1.80;;
15712;SDS011;7957;51.608;6.916;2022-09-03T06:33:37;1.57;;;1.30;;
15712;SDS011;7957;51.608;6.916;2022-09-03T06:36:07;2.03;;;1.80;;
15712;SDS011;7957;51.608;6.916;2022-09-03T06:38:37;2.50;;;1.60;;
15712;SDS011;7957;51.608;6.916;2022-09-03T07:14:07;1.97;;;1.73;;
15712;SDS011;7957;51.608;6.916;2022-09-03T07:16:35;1.60;;;1.30;;
15712;SDS011;7957;51.608;6.916;2022-09-03T07:19:02;3.73;;;1.80;;
15712;SDS011;7957;51.608;6.916;2022-09-03T07:21:34;2.93;;;1.50;;
15712;SDS011;7957;51.608;6.916;2022-09-03T07:24:03;2.63;;;1.50;;
15712;SDS011;7957;51.608;6.916;2022-09-03T07:26:31;2.07;;;1.40;;
15712;SDS011;7957;51.608;6.916;2022-09-03T07:29:02;3.03;;;1.50;;
15712;SDS011;7957;51.608;6.916;2022-09-03T07:31:37;1.97;;;1.30;;
15712;SDS011;7957;51.608;6.916;2022-09-03T08:12:50;4.17;;;1.60;;
15712;SDS011;7957;51.608;6.916;2022-09-03T08:15:17;3.40;;;1.60;;
15712;SDS011;7957;51.608;6.916;2022-09-03T08:17:44;3.10;;;1.77;;
15712;SDS011;7957;51.608;6.916;2022-09-03T08:20:11;4.40;;;1.60;;
15712;SDS011;7957;51.608;6.916;2022-09-03T08:22:38;2.40;;;1.60;;
15712;SDS011;7957;51.608;6.916;2022-09-03T08:25:05;2.60;;;1.60;;
15712;SDS011;7957;51.608;6.916;2022-09-03T08:27:33;1.90;;;1.33;;
15712;SDS011;7957;51.608;6.916;2022-09-03T08:30:01;1.97;;;1.67;;
15712;SDS011;7957;51.608;6.916;2022-09-03T08:32:28;2.80;;;1.70;;
15712;SDS011;7957;51.608;6.916;2022-09-03T08:34:55;1.83;;;1.30;;
15712;SDS011;7957;51.608;6.916;2022-09-03T08:37:22;3.93;;;1.70;;
15712;SDS011;7957;51.608;6.916;2022-09-03T08:39:51;1.90;;;1.53;;
15712;SDS011;7957;51.608;6.916;2022-09-03T08:42:20;4.47;;;1.50;;
15712;SDS011;7957;51.608;6.916;2022-09-03T08:44:56;1.70;;;1.53;;
15712;SDS011;7957;51.608;6.916;2022-09-03T08:47:29;1.80;;;1.60;;
15712;SDS011;7957;51.608;6.916;2022-09-03T08:50:00;1.57;;;1.43;;
15712;SDS011;7957;51.608;6.916;2022-09-03T08:52:31;2.10;;;1.43;;
15712;SDS011;7957;51.608;6.916;2022-09-03T08:55:12;3.97;;;1.50;;
15712;SDS011;7957;51.608;6.916;2022-09-03T08:57:48;1.83;;;1.37;;
15712;SDS011;7957;51.608;6.916;2022-09-03T09:00:18;1.50;;;1.40;;
15712;SDS011;7957;51.608;6.916;2022-09-03T09:02:51;1.67;;;1.50;;
15712;SDS011;7957;51.608;6.916;2022-09-03T09:05:33;3.10;;;1.53;;
15712;SDS011;7957;51.608;6.916;2022-09-03T09:08:11;1.80;;;1.60;;
15712;SDS011;7957;51.608;6.916;2022-09-03T09:10:44;2.90;;;1.50;;
15712;SDS011;7957;51.608;6.916;2022-09-03T09:13:16;1.90;;;1.63;;
15712;SDS011;7957;51.608;6.916;2022-09-03T09:15:50;2.07;;;1.60;;
15712;SDS011;7957;51.608;6.916;2022-09-03T09:18:31;1.80;;;1.70;;
15712;SDS011;7957;51.608;6.916;2022-09-03T09:21:09;1.50;;;1.40;;
15712;SDS011;7957;51.608;6.916;2022-09-03T09:23:42;3.50;;;1.57;;
15712;SDS011;7957;51.608;6.916;2022-09-03T09:26:12;1.70;;;1.60;;
15712;SDS011;7957;51.608;6.916;2022-09-03T09:28:42;3.90;;;1.70;;
15712;SDS011;7957;51.608;6.916;2022-09-03T09:31:13;2.37;;;1.67;;
15712;SDS011;7957;51.608;6.916;2022-09-03T09:33:44;2.60;;;1.50;;
15712;SDS011;7957;51.608;6.916;2022-09-03T09:36:16;1.57;;;1.40;;
15712;SDS011;7957;51.608;6.916;2022-09-03T09:38:44;2.83;;;1.73;;
15712;SDS011;7957;51.608;6.916;2022-09-03T09:41:12;1.47;;;1.37;;
15712;SDS011;7957;51.608;6.916;2022-09-03T09:43:41;4.43;;;1.73;;
15712;SDS011;7957;51.608;6.916;2022-09-03T09:46:11;3.07;;;1.50;;
15712;SDS011;7957;51.608;6.916;2022-09-03T09:48:45;3.17;;;1.67;;
15712;SDS011;7957;51.608;6.916;2022-09-03T09:51:19;3.47;;;1.83;;
15712;SDS011;7957;51.608;6.916;2022-09-03T09:53:58;2.30;;;1.80;;
15712;SDS011;7957;51.608;6.916;2022-09-03T09:56:27;3.60;;;1.80;;
15712;SDS011;7957;51.608;6.916;2022-09-03T09:59:02;2.80;;;1.83;;
15712;SDS011;7957;51.608;6.916;2022-09-03T10:01:30;5.23;;;1.90;;
15712;SDS011;7957;51.608;6.916;2022-09-03T10:04:07;4.07;;;1.70;;
15712;SDS011;7957;51.608;6.916;2022-09-03T10:06:37;3.23;;;2.10;;
15712;SDS011;7957;51.608;6.916;2022-09-03T10:09:22;2.33;;;1.60;;
15712;SDS011;7957;51.608;6.916;2022-09-03T10:11:53;3.17;;;2.17;;
15712;SDS011;7957;51.608;6.916;2022-09-03T10:14:31;2.97;;;2.10;;
15712;SDS011;7957;51.608;6.916;2022-09-03T10:17:06;3.80;;;2.50;;
15712;SDS011;7957;51.608;6.916;2022-09-03T10:19:42;4.13;;;2.30;;
15712;SDS011;7957;51.608;6.916;2022-09-03T10:22:38;3.90;;;2.63;;
15712;SDS011;7957;51.608;6.916;2022-09-03T10:25:10;3.30;;;3.00;;
15712;SDS011;7957;51.608;6.916;2022-09-03T10:27:40;3.50;;;3.17;;
15712;SDS011;7957;51.608;6.916;2022-09-03T10:30:10;4.13;;;2.60;;
15712;SDS011;7957;51.608;6.916;2022-09-03T10:32:39;3.77;;;2.90;;
15712;SDS011;7957;51.608;6.916;2022-09-03T10:35:22;5.53;;;3.20;;
15712;SDS011;7957;51.608;6.916;2022-09-03T10:37:57;4.27;;;2.57;;
15712;SDS011;7957;51.608;6.916;2022-09-03T10:40:35;2.57;;;2.27;;
15712;SDS011;7957;51.608;6.916;2022-09-03T10:43:17;4.87;;;2.40;;
15712;SDS011;7957;51.608;6.916;2022-09-03T10:45:59;2.53;;;2.20;;
15712;SDS011;7957;51.608;6.916;2022-09-03T10:48:51;3.67;;;2.30;;
15712;SDS011;7957;51.608;6.916;2022-09-03T10:51:30;4.57;;;2.20;;
15712;SDS011;7957;51.608;6.916;2022-09-03T10:54:04;2.73;;;2.13;;
15712;SDS011;7957;51.608;6.916;2022-09-03T10:56:44;3.07;;;2.30;;
15712;SDS011;7957;51.608;6.916;2022-09-03T10:59:23;2.83;;;2.00;;
15712;SDS011;7957;51.608;6.916;2022-09-03T11:02:12;2.53;;;2.00;;
15712;SDS011;7957;51.608;6.916;2022-09-03T11:04:49;4.33;;;1.90;;
15712;SDS011;7957;51.608;6.916;2022-09-03T11:07:24;4.53;;;1.90;;
15712;SDS011;7957;51.608;6.916;2022-09-03T11:09:58;4.73;;;2.20;;
15712;SDS011;7957;51.608;6.916;2022-09-03T11:12:31;3.53;;;2.00;;
15712;SDS011;7957;51.608;6.916;2022-09-03T11:15:02;2.60;;;2.00;;
15712;SDS011;7957;51.608;6.916;2022-09-03T11:17:36;1.87;;;1.60;;
15712;SDS011;7957;51.608;6.916;2022-09-03T11:20:08;2.93;;;2.10;;
15712;SDS011;7957;51.608;6.916;2022-09-03T11:22:41;2.47;;;2.00;;
15712;SDS011;7957;51.608;6.916;2022-09-03T11:25:10;2.13;;;1.83;;
15712;SDS011;7957;51.608;6.916;2022-09-03T11:27:46;2.27;;;1.90;;
15712;SDS011;7957;51.608;6.916;2022-09-03T11:30:22;1.97;;;1.87;;
15712;SDS011;7957;51.608;6.916;2022-09-03T11:32:50;3.07;;;1.80;;
15712;SDS011;7957;51.608;6.916;2022-09-03T11:35:25;4.57;;;2.03;;
15712;SDS011;7957;51.608;6.916;2022-09-03T11:37:58;2.00;;;1.80;;
15712;SDS011;7957;51.608;6.916;2022-09-03T11:40:33;1.90;;;1.80;;
15712;SDS011;7957;51.608;6.916;2022-09-03T11:43:05;2.60;;;1.83;;
15712;SDS011;7957;51.608;6.916;2022-09-03T11:45:37;2.10;;;1.90;;
15712;SDS011;7957;51.608;6.916;2022-09-03T11:48:17;2.43;;;1.80;;
15712;SDS011;7957;51.608;6.916;2022-09-03T11:50:58;2.00;;;1.87;;
15712;SDS011;7957;51.608;6.916;2022-09-03T11:53:32;2.50;;;2.00;;
15712;SDS011;7957;51.608;6.916;2022-09-03T11:56:00;2.17;;;1.97;;
15712;SDS011;7957;51.608;6.916;2022-09-03T11:58:42;4.43;;;1.90;;
15712;SDS011;7957;51.608;6.916;2022-09-03T12:01:10;1.83;;;1.73;;
15712;SDS011;7957;51.608;6.916;2022-09-03T12:03:41;2.10;;;1.90;;
15712;SDS011;7957;51.608;6.916;2022-09-03T12:09:06;2.27;;;1.90;;
15712;SDS011;7957;51.608;6.916;2022-09-03T12:11:49;2.30;;;2.10;;
15712;SDS011;7957;51.608;6.916;2022-09-03T12:14:25;1.77;;;1.67;;
15712;SDS011;7957;51.608;6.916;2022-09-03T12:17:04;1.73;;;1.63;;
15712;SDS011;7957;51.608;6.916;2022-09-03T12:19:39;3.50;;;2.20;;
15712;SDS011;7957;51.608;6.916;2022-09-03T12:22:12;2.40;;;2.13;;
15712;SDS011;7957;51.608;6.916;2022-09-03T12:24:41;2.30;;;1.90;;
15712;SDS011;7957;51.608;6.916;2022-09-03T12:27:09;2.00;;;1.67;;
15712;SDS011;7957;51.608;6.916;2022-09-03T12:29:49;3.73;;;1.97;;
15712;SDS011;7957;51.608;6.916;2022-09-03T12:32:24;3.03;;;1.80;;
15712;SDS011;7957;51.608;6.916;2022-09-03T12:34:52;2.20;;;2.00;;
15712;SDS011;7957;51.608;6.916;2022-09-03T12:37:20;3.50;;;1.80;;
15712;SDS011;7957;51.608;6.916;2022-09-03T12:39:51;3.30;;;1.87;;
15712;SDS011;7957;51.608;6.916;2022-09-03T12:42:20;2.53;;;2.00;;
15712;SDS011;7957;51.608;6.916;2022-09-03T12:44:51;2.07;;;1.87;;
15712;SDS011;7957;51.608;6.916;2022-09-03T12:47:20;2.70;;;2.00;;
15712;SDS011;7957;51.608;6.916;2022-09-03T12:49:49;2.60;;;1.90;;
15712;SDS011;7957;51.608;6.916;2022-09-03T12:52:19;2.73;;;1.90;;
15712;SDS011;7957;51.608;6.916;2022-09-03T12:54:53;1.97;;;1.87;;
15712;SDS011;7957;51.608;6.916;2022-09-03T12:57:25;1.80;;;1.70;;
15712;SDS011;7957;51.608;6.916;2022-09-03T12:59:59;4.13;;;1.90;;
15712;SDS011;7957;51.608;6.916;2022-09-03T13:02:36;1.87;;;1.73;;
15712;SDS011;7957;51.608;6.916;2022-09-03T13:05:10;2.20;;;1.87;;
15712;SDS011;7957;51.608;6.916;2022-09-03T13:07:42;4.23;;;1.73;;
15712;SDS011;7957;51.608;6.916;2022-09-03T13:10:20;2.27;;;1.93;;
15712;SDS011;7957;51.608;6.916;2022-09-03T13:12:56;4.33;;;2.00;;
15712;SDS011;7957;51.608;6.916;2022-09-03T13:15:25;1.80;;;1.70;;
15712;SDS011;7957;51.608;6.916;2022-09-03T13:18:07;2.23;;;2.03;;
15712;SDS011;7957;51.608;6.916;2022-09-03T13:20:46;3.17;;;2.00;;
15712;SDS011;7957;51.608;6.916;2022-09-03T13:23:33;2.77;;;1.80;;
15712;SDS011;7957;51.608;6.916;2022-09-03T13:26:13;2.40;;;1.80;;
15712;SDS011;7957;51.608;6.916;2022-09-03T13:28:51;2.73;;;1.90;;
15712;SDS011;7957;51.608;6.916;2022-09-03T13:31:31;3.43;;;2.10;;
15712;SDS011;7957;51.608;6.916;2022-09-03T13:34:04;2.93;;;2.00;;
15712;SDS011;7957;51.608;6.916;2022-09-03T13:36:35;2.43;;;2.07;;
15712;SDS011;7957;51.608;6.916;2022-09-03T13:39:15;3.33;;;1.60;;
15712;SDS011;7957;51.608;6.916;2022-09-03T13:41:49;2.97;;;2.10;;
15712;SDS011;7957;51.608;6.916;2022-09-03T13:44:23;5.00;;;2.00;;
15712;SDS011;7957;51.608;6.916;2022-09-03T13:47:04;2.97;;;1.70;;
15712;SDS011;7957;51.608;6.916;2022-09-03T13:49:38;3.10;;;1.77;;
15712;SDS011;7957;51.608;6.916;2022-09-03T13:52:26;3.40;;;2.13;;
15712;SDS011;7957;51.608;6.916;2022-09-03T13:55:00;5.77;;;2.10;;
15712;SDS011;7957;51.608;6.916;2022-09-03T13:57:37;2.00;;;1.77;;
15712;SDS011;7957;51.608;6.916;2022-09-03T14:00:13;3.03;;;2.10;;
15712;SDS011;7957;51.608;6.916;2022-09-03T14:02:50;2.67;;;2.20;;
15712;SDS011;7957;51.608;6.916;2022-09-03T14:05:23;2.97;;;2.10;;
15712;SDS011;7957;51.608;6.916;2022-09-03T14:08:04;2.03;;;1.83;;
15712;SDS011;7957;51.608;6.916;2022-09-03T14:10:43;3.07;;;1.80;;
15712;SDS011;7957;51.608;6.916;2022-09-03T14:13:21;6.00;;;2.10;;
15712;SDS011;7957;51.608;6.916;2022-09-03T14:15:59;6.90;;;2.50;;
15712;SDS011;7957;51.608;6.916;2022-09-03T14:18:35;5.40;;;2.30;;
15712;SDS011;7957;51.608;6.916;2022-09-03T14:21:10;2.23;;;2.00;;
15712;SDS011;7957;51.608;6.916;2022-09-03T14:23:44;2.97;;;2.20;;
15712;SDS011;7957;51.608;6.916;2022-09-03T14:26:17;3.07;;;2.10;;
15712;SDS011;7957;51.608;6.916;2022-09-03T14:28:58;2.30;;;2.10;;
15712;SDS011;7957;51.608;6.916;2022-09-03T14:31:32;3.90;;;2.57;;
15712;SDS011;7957;51.608;6.916;2022-09-03T14:34:17;3.60;;;2.40;;
15712;SDS011;7957;51.608;6.916;2022-09-03T14:36:57;2.47;;;2.27;;
15712;SDS011;7957;51.608;6.916;2022-09-03T14:39:33;2.50;;;2.20;;
15712;SDS011;7957;51.608;6.916;2022-09-03T14:42:12;2.00;;;1.90;;
15712;SDS011;7957;51.608;6.916;2022-09-03T14:48:25;4.17;;;2.23;;
15712;SDS011;7957;51.608;6.916;2022-09-03T14:51:12;3.03;;;2.20;;
15712;SDS011;7957;51.608;6.916;2022-09-03T14:54:03;2.23;;;1.97;;
15712;SDS011;7957;51.608;6.916;2022-09-03T14:56:57;3.33;;;2.07;;
15712;SDS011;7957;51.608;6.916;2022-09-03T14:59:49;2.47;;;1.97;;
15712;SDS011;7957;51.608;6.916;2022-09-03T15:02:40;2.03;;;1.93;;
15712;SDS011;7957;51.608;6.916;2022-09-03T15:05:38;5.90;;;2.10;;
15712;SDS011;7957;51.608;6.916;2022-09-03T15:08:15;2.30;;;1.90;;
15712;SDS011;7957;51.608;6.916;2022-09-03T15:10:51;2.43;;;2.20;;
15712;SDS011;7957;51.608;6.916;2022-09-03T15:13:23;2.83;;;2.23;;
15712;SDS011;7957;51.608;6.916;2022-09-03T15:15:58;2.47;;;1.90;;
15712;SDS011;7957;51.608;6.916;2022-09-03T15:18:41;2.90;;;2.27;;
15712;SDS011;7957;51.608;6.916;2022-09-03T15:21:27;3.20;;;2.20;;
15712;SDS011;7957;51.608;6.916;2022-09-03T15:24:06;2.70;;;2.20;;
15712;SDS011;7957;51.608;6.916;2022-09-03T15:26:52;2.20;;;2.00;;
15712;SDS011;7957;51.608;6.916;2022-09-03T15:29:29;3.07;;;2.27;;
15712;SDS011;7957;51.608;6.916;2022-09-03T15:32:09;2.97;;;2.50;;
15712;SDS011;7957;51.608;6.916;2022-09-03T15:37:39;2.27;;;2.10;;
15712;SDS011;7957;51.608;6.916;2022-09-03T15:40:16;4.13;;;2.13;;
15712;SDS011;7957;51.608;6.916;2022-09-03T15:42:51;2.20;;;2.10;;
15712;SDS011;7957;51.608;6.916;2022-09-03T15:45:27;2.90;;;2.20;;
15712;SDS011;7957;51.608;6.916;2022-09-03T15:48:00;2.53;;;2.33;;
15712;SDS011;7957;51.608;6.916;2022-09-03T15:50:38;2.33;;;2.13;;
15712;SDS011;7957;51.608;6.916;2022-09-03T15:53:19;3.17;;;2.20;;
15712;SDS011;7957;51.608;6.916;2022-09-03T15:56:01;4.03;;;2.00;;
15712;SDS011;7957;51.608;6.916;2022-09-03T15:58:41;2.07;;;1.87;;
15712;SDS011;7957;51.608;6.916;2022-09-03T16:01:20;2.40;;;2.20;;
15712;SDS011;7957;51.608;6.916;2022-09-03T16:03:57;2.30;;;2.10;;
15712;SDS011;7957;51.608;6.916;2022-09-03T16:06:37;4.07;;;2.10;;
15712;SDS011;7957;51.608;6.916;2022-09-03T16:09:22;2.67;;;2.10;;
15712;SDS011;7957;51.608;6.916;2022-09-03T16:12:05;2.23;;;2.03;;
15712;SDS011;7957;51.608;6.916;2022-09-03T16:14:43;2.37;;;2.17;;
15712;SDS011;7957;51.608;6.916;2022-09-03T16:17:21;4.23;;;2.20;;
15712;SDS011;7957;51.608;6.916;2022-09-03T16:19:55;2.20;;;2.10;;
15712;SDS011;7957;51.608;6.916;2022-09-03T16:22:30;2.13;;;2.00;;
15712;SDS011;7957;51.608;6.916;2022-09-03T16:25:06;2.87;;;2.20;;
15712;SDS011;7957;51.608;6.916;2022-09-03T16:27:39;2.60;;;2.40;;
15712;SDS011;7957;51.608;6.916;2022-09-03T16:30:20;2.67;;;2.30;;
15712;SDS011;7957;51.608;6.916;2022-09-03T16:33:01;2.77;;;2.47;;
15712;SDS011;7957;51.608;6.916;2022-09-03T16:35:39;3.17;;;2.23;;
15712;SDS011;7957;51.608;6.916;2022-09-03T16:38:21;2.33;;;2.13;;
15712;SDS011;7957;51.608;6.916;2022-09-03T16:40:59;2.67;;;2.10;;
15712;SDS011;7957;51.608;6.916;2022-09-03T16:43:38;2.87;;;2.20;;
15712;SDS011;7957;51.608;6.916;2022-09-03T16:46:15;2.60;;;2.40;;
15712;SDS011;7957;51.608;6.916;2022-09-03T16:48:50;3.83;;;2.40;;
15712;SDS011;7957;51.608;6.916;2022-09-03T16:51:31;2.10;;;2.00;;
15712;SDS011;7957;51.608;6.916;2022-09-03T16:54:08;2.87;;;2.40;;
15712;SDS011;7957;51.608;6.916;2022-09-03T16:56:57;3.50;;;2.20;;
15712;SDS011;7957;51.608;6.916;2022-09-03T17:02:45;2.60;;;2.40;;
15712;SDS011;7957;51.608;6.916;2022-09-03T17:05:51;2.47;;;2.27;;